createdAt,value
2023-01-19T00:01:20.234Z,9.73
2023-01-19T00:03:48.135Z,9.03
2023-01-19T00:06:16.122Z,9.07
2023-01-19T00:08:49.813Z,9.20
2023-01-19T00:11:21.141Z,8.90
2023-01-19T00:13:51.346Z,9.40
2023-01-19T00:16:25.308Z,9.03
2023-01-19T00:18:53.539Z,9.23
2023-01-19T00:21:21.946Z,9.83
2023-01-19T00:23:51.424Z,9.87
2023-01-19T00:26:19.674Z,9.80
2023-01-19T00:28:49.337Z,9.57
2023-01-19T00:31:21.383Z,10.30
2023-01-19T00:33:49.637Z,9.87
2023-01-19T00:36:17.121Z,9.83
2023-01-19T00:38:44.815Z,9.90
2023-01-19T00:41:12.091Z,9.87
2023-01-19T00:43:39.872Z,10.20
2023-01-19T00:46:07.558Z,9.97
2023-01-19T00:48:35.828Z,10.17
2023-01-19T00:51:03.073Z,10.80
2023-01-19T00:53:32.727Z,10.23
2023-01-19T00:56:01.460Z,10.13
2023-01-19T00:58:28.995Z,10.43
2023-01-19T01:00:58.090Z,10.50
2023-01-19T01:03:28.416Z,10.50
2023-01-19T01:05:56.223Z,9.93
2023-01-19T01:08:23.851Z,10.47
2023-01-19T01:10:51.901Z,10.37
2023-01-19T01:13:20.826Z,10.83
2023-01-19T01:15:55.825Z,10.07
2023-01-19T01:18:24.019Z,10.67
2023-01-19T01:20:51.481Z,10.67
2023-01-19T01:23:23.142Z,10.07
2023-01-19T01:25:52.567Z,10.53
2023-01-19T01:28:25.648Z,10.27
2023-01-19T01:31:00.706Z,10.50
2023-01-19T01:33:41.076Z,10.43
2023-01-19T01:36:13.441Z,10.47
2023-01-19T01:38:46.547Z,10.37
2023-01-19T01:41:15.228Z,10.37
2023-01-19T01:44:01.668Z,10.17
2023-01-19T01:46:33.384Z,9.67
2023-01-19T01:49:14.723Z,10.93
2023-01-19T01:51:56.913Z,9.73
2023-01-19T01:54:32.583Z,10.10
2023-01-19T01:57:13.291Z,10.53
2023-01-19T01:59:51.470Z,10.20
2023-01-19T02:02:52.992Z,10.63
2023-01-19T02:05:40.027Z,10.30
2023-01-19T02:08:54.484Z,10.40
2023-01-19T02:11:47.138Z,9.67
2023-01-19T02:14:23.876Z,10.00
2023-01-19T02:17:00.629Z,9.60
2023-01-19T02:19:54.558Z,8.73
2023-01-19T02:22:41.496Z,9.60
2023-01-19T02:25:11.574Z,9.63
2023-01-19T02:27:41.448Z,10.03
2023-01-19T02:30:12.425Z,10.23
2023-01-19T02:32:42.043Z,9.67
2023-01-19T02:35:18.155Z,9.77
2023-01-19T02:37:51.315Z,9.53
2023-01-19T02:40:27.139Z,9.87
2023-01-19T02:43:03.587Z,9.87
2023-01-19T02:45:35.849Z,9.67
2023-01-19T02:48:07.597Z,9.73
2023-01-19T02:50:49.754Z,9.23
2023-01-19T02:53:50.809Z,9.87
2023-01-19T02:56:36.901Z,9.53
2023-01-19T02:59:09.338Z,9.40
2023-01-19T03:02:35.398Z,9.57
2023-01-19T03:05:30.587Z,9.17
2023-01-19T03:08:51.888Z,9.33
2023-01-19T03:11:19.704Z,8.87
2023-01-19T03:14:03.330Z,9.07
2023-01-19T03:16:41.434Z,9.83
2023-01-19T03:19:22.598Z,9.97
2023-01-19T03:22:04.307Z,10.87
2023-01-19T03:24:40.276Z,9.93
2023-01-19T03:27:53.022Z,10.10
2023-01-19T03:35:47.222Z,10.07
2023-01-19T03:38:29.079Z,10.10
2023-01-19T03:41:08.732Z,10.57
2023-01-19T03:43:44.786Z,10.57
2023-01-19T03:46:24.376Z,10.27
2023-01-19T03:48:55.016Z,10.67
2023-01-19T04:04:54.891Z,11.00
2023-01-19T04:07:22.534Z,11.17
2023-01-19T04:09:50.078Z,11.10
2023-01-19T04:12:17.488Z,10.33
2023-01-19T04:14:45.257Z,11.73
2023-01-19T04:17:12.948Z,11.60
2023-01-19T04:19:41.852Z,11.50
2023-01-19T04:22:09.317Z,11.43
2023-01-19T04:24:36.886Z,11.70
2023-01-19T04:27:04.420Z,11.03
2023-01-19T04:29:32.087Z,11.43
2023-01-19T04:32:00.296Z,11.33
2023-01-19T04:34:27.791Z,11.50
2023-01-19T04:36:56.126Z,11.73
2023-01-19T04:39:23.516Z,11.60
2023-01-19T04:41:52.551Z,10.80
2023-01-19T04:44:20.330Z,10.57
2023-01-19T04:46:48.532Z,10.70
2023-01-19T04:49:16.033Z,9.83
2023-01-19T04:51:44.771Z,9.63
2023-01-19T04:54:12.273Z,9.57
2023-01-19T04:56:41.321Z,8.90
2023-01-19T04:59:08.845Z,8.80
2023-01-19T05:01:37.446Z,8.77
2023-01-19T05:04:07.559Z,8.27
2023-01-19T05:06:35.557Z,8.03
2023-01-19T05:09:03.723Z,7.00
2023-01-19T05:11:31.118Z,7.33
2023-01-19T05:13:58.584Z,5.80
2023-01-19T05:16:25.979Z,6.27
2023-01-19T05:18:53.537Z,6.47
2023-01-19T05:21:21.021Z,6.47
2023-01-19T05:23:49.075Z,6.60
2023-01-19T05:26:17.930Z,6.97
2023-01-19T05:28:45.267Z,6.43
2023-01-19T05:31:22.579Z,5.80
2023-01-19T05:34:13.316Z,5.80
2023-01-19T05:36:45.469Z,5.37
2023-01-19T05:39:33.663Z,5.43
2023-01-19T10:59:52.449Z,16.60
2023-01-19T11:02:24.191Z,17.20
2023-01-19T11:04:57.306Z,16.77
2023-01-19T11:07:31.991Z,18.13
2023-01-19T11:10:21.595Z,16.67
2023-01-19T11:13:07.827Z,16.87
2023-01-19T11:16:04.585Z,15.93
2023-01-19T11:18:38.895Z,15.70
2023-01-19T11:21:10.057Z,16.27
2023-01-19T11:23:45.607Z,16.30
2023-01-19T11:26:41.011Z,16.10
2023-01-19T11:29:22.851Z,15.57
2023-01-19T11:31:52.257Z,15.40
2023-01-19T11:34:38.853Z,15.30
2023-01-19T11:37:28.289Z,15.00
2023-01-19T11:40:03.126Z,14.80
2023-01-19T11:42:34.370Z,14.67
2023-01-19T11:45:15.145Z,14.80
2023-01-19T11:47:49.765Z,14.60
2023-01-19T11:50:37.918Z,14.07
2023-01-19T11:53:25.459Z,14.07
2023-01-19T11:56:10.385Z,13.60
2023-01-19T11:58:42.059Z,13.00
2023-01-19T12:01:34.404Z,13.43
2023-01-19T12:04:09.199Z,13.27
2023-01-19T12:06:42.607Z,12.77
2023-01-19T12:09:34.893Z,13.37
2023-01-19T12:12:08.351Z,12.83
2023-01-19T12:14:55.085Z,12.70
2023-01-19T12:17:35.404Z,11.43
2023-01-19T12:20:45.390Z,12.40
2023-01-19T12:23:39.948Z,12.60
2023-01-19T12:26:16.879Z,12.70
2023-01-19T12:28:52.896Z,12.77
2023-01-19T12:31:23.773Z,12.40
2023-01-19T12:33:52.579Z,12.07
2023-01-19T12:36:41.749Z,11.70
2023-01-19T12:39:09.146Z,11.87
2023-01-19T12:41:39.367Z,12.23
2023-01-19T12:44:14.509Z,13.10
2023-01-19T12:46:52.809Z,13.33
2023-01-19T12:49:41.367Z,12.97
2023-01-19T12:52:26.997Z,13.77
2023-01-19T12:54:58.341Z,12.77
2023-01-19T12:58:01.320Z,12.50
2023-01-19T13:00:41.149Z,12.20
2023-01-19T13:03:17.870Z,14.23
2023-01-19T13:05:45.532Z,13.47
2023-01-19T13:09:28.307Z,13.97
2023-01-19T13:12:14.593Z,13.60
2023-01-19T13:18:48.793Z,13.30
2023-01-19T13:26:02.857Z,12.30
2023-01-19T13:28:42.135Z,12.20
2023-01-19T13:31:10.715Z,12.67
2023-01-19T13:34:08.020Z,12.50
2023-01-19T13:36:42.795Z,11.97
2023-01-19T13:39:30.970Z,11.77
2023-01-19T13:42:05.079Z,12.37
2023-01-19T13:44:47.506Z,11.53
2023-01-19T13:47:24.597Z,11.90
2023-01-19T13:49:59.269Z,11.00
2023-01-19T13:52:30.666Z,10.97
2023-01-19T13:55:05.749Z,11.63
2023-01-19T13:57:49.066Z,11.03
2023-01-19T14:00:29.364Z,11.57
2023-01-19T14:03:24.005Z,11.90
2023-01-19T14:05:54.969Z,11.80
2023-01-19T14:08:26.003Z,11.33
2023-01-19T14:11:02.820Z,11.83
2023-01-19T14:17:35.391Z,11.93
2023-01-19T14:20:03.212Z,12.97
2023-01-19T14:22:51.019Z,13.07
2023-01-19T14:25:36.348Z,12.57
2023-01-19T14:28:46.726Z,12.63
2023-01-19T14:31:24.131Z,13.20
2023-01-19T14:33:56.643Z,13.03
2023-01-19T14:36:45.512Z,12.73
2023-01-19T14:39:25.068Z,12.83
2023-01-19T14:41:56.187Z,12.90
2023-01-19T14:44:59.410Z,12.90
2023-01-19T14:47:56.891Z,13.00
2023-01-19T14:50:30.534Z,12.87
2023-01-19T14:57:16.150Z,13.03
2023-01-19T14:59:48.724Z,13.07
2023-01-19T15:02:22.758Z,12.40
2023-01-19T15:04:54.696Z,12.13
2023-01-19T15:07:28.714Z,13.77
2023-01-19T15:09:57.003Z,13.17
2023-01-19T15:12:29.857Z,13.70
2023-01-19T15:14:59.885Z,13.77
2023-01-19T15:17:30.417Z,12.57
2023-01-19T15:19:59.194Z,13.67
2023-01-19T15:22:28.800Z,13.40
2023-01-19T15:25:00.762Z,13.47
2023-01-19T15:37:03.640Z,13.90
2023-01-19T15:39:31.010Z,12.40
2023-01-19T15:41:59.680Z,13.17
2023-01-19T15:44:27.641Z,13.70
2023-01-19T15:46:57.618Z,13.13
2023-01-19T15:49:25.567Z,14.10
2023-01-19T15:51:53.756Z,13.03
2023-01-19T15:54:25.592Z,13.33
2023-01-19T15:56:53.678Z,12.33
2023-01-19T15:59:21.296Z,13.27
2023-01-19T16:01:51.935Z,13.17
2023-01-19T16:04:19.756Z,13.10
2023-01-19T16:06:48.070Z,14.67
2023-01-19T16:09:19.013Z,13.03
2023-01-19T16:11:52.184Z,13.37
2023-01-19T16:14:20.029Z,12.67
2023-01-19T16:16:47.634Z,12.53
2023-01-19T16:19:17.521Z,13.03
2023-01-19T16:21:45.502Z,13.40
2023-01-19T16:24:13.027Z,13.57
2023-01-19T16:26:40.457Z,13.40
2023-01-19T16:29:11.018Z,13.90
2023-01-19T16:31:45.006Z,14.43
2023-01-19T16:34:13.066Z,13.10
2023-01-19T16:36:42.600Z,12.83
2023-01-19T16:39:15.421Z,12.97
2023-01-19T16:41:44.877Z,14.20
2023-01-19T16:44:15.152Z,14.80
2023-01-19T16:46:45.758Z,14.30
2023-01-19T16:49:21.844Z,13.97
2023-01-19T16:51:54.219Z,13.17
2023-01-19T16:54:26.533Z,12.90
2023-01-19T16:56:59.696Z,13.83
2023-01-19T16:59:30.453Z,14.43
2023-01-19T17:01:58.661Z,14.17
2023-01-19T17:04:28.412Z,12.20
2023-01-19T17:06:56.976Z,13.40
2023-01-19T17:09:24.827Z,13.43
2023-01-19T17:11:52.397Z,14.20
2023-01-19T17:14:24.768Z,13.33
2023-01-19T17:16:54.472Z,13.90
2023-01-19T17:19:23.525Z,14.20
2023-01-19T17:21:57.827Z,14.30
2023-01-19T17:24:25.466Z,13.67
2023-01-19T17:26:54.397Z,13.97
2023-01-19T17:29:23.177Z,13.60
2023-01-19T17:31:51.866Z,13.90
2023-01-19T17:34:19.539Z,13.20
2023-01-19T17:36:46.970Z,14.73
2023-01-19T17:39:15.125Z,13.57
2023-01-19T17:41:42.975Z,13.63
2023-01-19T17:44:11.559Z,14.10
2023-01-19T17:46:40.210Z,13.63
2023-01-19T17:49:08.638Z,13.53
2023-01-19T17:51:36.932Z,13.70
2023-01-19T17:54:05.099Z,13.70
2023-01-19T17:56:37.139Z,14.10
2023-01-19T17:59:08.381Z,14.10
2023-01-19T18:01:41.407Z,14.60
2023-01-19T18:04:10.036Z,15.83
2023-01-19T18:06:39.200Z,16.10
2023-01-19T18:09:08.028Z,15.40
2023-01-19T18:11:36.177Z,16.07
2023-01-19T18:14:04.206Z,15.23
2023-01-19T18:16:32.914Z,14.97
2023-01-19T18:19:01.997Z,16.90
2023-01-19T18:21:34.255Z,15.83
2023-01-19T18:24:06.668Z,15.00
2023-01-19T18:26:35.992Z,15.60
2023-01-19T18:29:03.884Z,15.23
2023-01-19T18:31:34.291Z,14.60
2023-01-19T18:34:02.224Z,13.57
2023-01-19T18:36:33.422Z,14.60
2023-01-19T18:39:02.519Z,12.80
2023-01-19T18:41:31.962Z,13.37
2023-01-19T18:44:00.205Z,12.50
2023-01-19T18:46:28.755Z,12.13
2023-01-19T18:48:56.648Z,13.17
2023-01-19T18:51:24.159Z,12.47
2023-01-19T18:53:52.039Z,12.93
2023-01-19T18:56:19.797Z,12.50
2023-01-19T18:58:55.121Z,12.67
2023-01-19T19:01:38.274Z,13.10
2023-01-19T19:04:11.185Z,12.00
2023-01-19T19:06:41.713Z,12.23
2023-01-19T19:09:13.617Z,13.83
2023-01-19T19:12:20.826Z,12.63
2023-01-19T19:14:49.971Z,13.73
2023-01-19T19:17:22.851Z,13.30
2023-01-19T19:19:51.391Z,13.17
2023-01-19T19:22:18.851Z,11.60
2023-01-19T19:24:50.794Z,13.17
2023-01-19T19:27:20.969Z,12.97
2023-01-19T19:29:51.907Z,12.03
2023-01-19T19:32:21.276Z,13.13
2023-01-19T19:34:58.313Z,13.43
2023-01-19T19:37:26.572Z,12.90
2023-01-19T19:39:57.093Z,12.13
2023-01-19T19:42:25.374Z,12.33
2023-01-19T19:44:56.123Z,12.63
2023-01-19T19:47:24.789Z,14.13
2023-01-19T19:49:54.962Z,14.50
2023-01-19T19:52:22.924Z,13.13
2023-01-19T19:54:50.859Z,12.47
2023-01-19T19:57:18.584Z,12.50
2023-01-19T19:59:46.423Z,12.80
2023-01-19T20:02:18.896Z,13.63
2023-01-19T20:04:49.835Z,14.53
2023-01-19T20:07:19.006Z,12.17
2023-01-19T20:09:47.354Z,13.93
2023-01-19T20:12:18.520Z,13.60
2023-01-19T20:14:57.281Z,13.87
2023-01-19T20:17:25.723Z,14.40
2023-01-19T20:19:53.977Z,13.80
2023-01-19T20:22:34.012Z,13.53
2023-01-19T20:25:05.355Z,15.30
2023-01-19T20:27:33.226Z,13.70
2023-01-19T20:30:06.525Z,14.27
2023-01-19T20:32:37.355Z,13.93
2023-01-19T20:35:05.500Z,15.87
2023-01-19T20:37:35.304Z,13.10
2023-01-19T20:40:03.026Z,15.03
2023-01-19T20:42:31.042Z,14.53
2023-01-19T20:44:58.794Z,13.00
2023-01-19T20:47:27.099Z,14.73
2023-01-19T20:49:55.262Z,14.77
2023-01-19T20:52:22.808Z,15.73
2023-01-19T20:54:52.429Z,15.63
2023-01-19T20:57:19.858Z,16.63
2023-01-19T20:59:47.346Z,17.30
2023-01-19T21:02:16.371Z,16.17
2023-01-19T21:04:43.817Z,15.30
2023-01-19T21:07:11.523Z,15.97
2023-01-19T21:09:40.410Z,17.00
2023-01-19T21:12:09.857Z,15.60
2023-01-19T21:14:37.773Z,16.63
2023-01-19T21:17:05.742Z,14.93
2023-01-19T21:19:33.312Z,15.07
2023-01-19T21:22:00.669Z,16.60
2023-01-19T21:24:29.492Z,16.37
2023-01-19T21:26:56.899Z,15.77
2023-01-19T21:29:24.233Z,15.87
2023-01-19T21:31:52.013Z,14.33
2023-01-19T21:34:19.489Z,15.47
2023-01-19T21:36:46.856Z,15.73
2023-01-19T21:39:17.187Z,16.57
2023-01-19T21:41:45.794Z,16.17
2023-01-19T21:44:16.139Z,17.00
2023-01-19T21:46:43.638Z,16.67
2023-01-19T21:49:19.795Z,16.87
2023-01-19T21:51:52.551Z,16.70
2023-01-19T21:54:28.755Z,15.93
2023-01-19T21:57:04.329Z,16.87
2023-01-19T21:59:37.834Z,16.17
2023-01-19T22:02:06.911Z,16.20
2023-01-19T22:04:36.263Z,17.10
2023-01-19T22:07:05.908Z,17.63
2023-01-19T22:09:39.470Z,17.90
2023-01-19T22:12:16.553Z,18.97
2023-01-19T22:14:46.479Z,17.50
2023-01-19T22:17:19.780Z,18.47
2023-01-19T22:19:52.095Z,17.83
2023-01-19T22:22:22.205Z,17.90
2023-01-19T22:24:54.433Z,17.90
2023-01-19T22:27:22.720Z,17.77
2023-01-19T22:29:51.494Z,17.40
2023-01-19T22:32:22.811Z,18.23
2023-01-19T22:34:51.331Z,18.53
2023-01-19T22:37:20.694Z,18.33
2023-01-19T22:39:48.785Z,17.33
2023-01-19T22:42:21.028Z,19.13
2023-01-19T22:44:56.296Z,17.87
2023-01-19T22:47:24.351Z,18.07
2023-01-19T22:49:51.979Z,17.13
2023-01-19T22:52:19.138Z,18.37
2023-01-19T22:54:48.117Z,16.40
2023-01-19T22:57:18.682Z,16.80
2023-01-19T22:59:47.868Z,17.67
2023-01-19T23:02:15.511Z,16.97
2023-01-19T23:04:44.520Z,16.83
2023-01-19T23:07:13.687Z,18.97
2023-01-19T23:09:42.623Z,18.47
2023-01-19T23:12:11.828Z,17.80
2023-01-19T23:14:40.751Z,17.87
2023-01-19T23:17:10.618Z,17.80
2023-01-19T23:19:40.139Z,17.53
2023-01-19T23:22:13.485Z,17.17
2023-01-19T23:24:46.727Z,18.03
2023-01-19T23:27:15.205Z,17.83
2023-01-19T23:29:49.191Z,17.47
2023-01-19T23:32:18.693Z,18.17
2023-01-19T23:34:46.883Z,16.57
2023-01-19T23:37:15.466Z,17.53
2023-01-19T23:39:48.966Z,17.83
2023-01-19T23:42:26.154Z,17.27
2023-01-19T23:45:04.358Z,16.93
2023-01-19T23:47:38.232Z,16.40
2023-01-19T23:50:09.595Z,16.70
2023-01-19T23:52:40.759Z,17.17
2023-01-19T23:55:19.068Z,17.00
2023-01-19T23:57:57.628Z,16.67
